Kezdőlap
METAR-TAF:

METAR-TAF

Repülőterek :

Lambert-St Louis International Airport

St. Louis, Missouri, Amerikai Egyesült Államok

földrajzi szélesség: 38-45-09N, földrajzi hosszúság: 090-22-25W, magasság: 184 m

Jelenlegi meteorológiai megfigyelések

A jelentés 1 órával és 12 perccel ezelõtt készült, 09:51 UTC
Északi szél 4 kt
Hőmérséklet 22°C
Páratartalom 73%
Légköri nyomás 1019 hPa
Látótávolság: 16.1 km
Kevés felhő 6500 lábon
Borult 12000 lábon

METAR: KSTL 210951Z 01004KT 10SM FEW065 OVC120 22/17 A3009 RMK AO2 SLP180 T02170167 $

Idő: 06:03 (11:03 UTC)

Előrejelzés

A jelentés 2 órával és 2 perccel ezelõtt készült, 09:01 UTC
Az előrejelzés 21-én 09 óra UTC és 22-én 12 óra UTC között érvényes
Észak-északkeleti szél 4 kt
Látótávolság: 10 km
Szórványos felhőzet 4000 lábon
Borult 10000 lábon

TAF: KSTL 210901Z 2109/2212 03004KT P6SM SCT040 OVC100

Meteorológiai megfigyelések és előrejelzések több, mint 4000 repülőtéren (METAR és TAF jelentéseket).

A térképen piros és sárga pontok jelzik az elérhető meteorológiai állomásokat.

Mozgassa az egeret a pont fölött, hogy megjelenjen az állomás neve.

Azután kattintson az időjárási megfigyelések és előrejelzések megtekintéséhez.

A térkép megváltoztatása: kattintson a fekete keresztel jelölt zöld gombra ráközelítéshez, a vonallal jelölt zöld gombra távolításhoz, vagy a zöld nyilakra a szomszédos térképek eléréséhez.


METAR-TAF: